Flight Track Log - Related Links

Times and Time Zones

All times are in EDT time to prevent confusion due to time zone crossing. See the N830QS flight status page for this flight to view local times or setup timezone preferences in your user account.

Time Position Orientation Groundspeed Altitude Reporting Facility
EDT Latitude Longitude Course Direction KTS MPH feet Rate Location/Type
Fri 03:08:43 PM 28.2833 -81.4333 221° Southwest 155 178 800  Level Orlando TRACON
Fri 03:09:07 PM 28.2667 -81.4500 221° Southwest 179 206 1,400 2,500 Climbing Orlando TRACON
Fri 03:10:07 PM 28.2667 -81.5000 270° West 203 234 4,300 2,671 Climbing Orlando TRACON
Fri 03:11:51 PM 28.2858 -81.6386 279° West 251 289 8,700 2,598 Climbing Jacksonville Center
Fri 03:12:51 PM 28.3011 -81.7303 281° West 277 319 11,400 2,500 Climbing Jacksonville Center
Fri 03:13:51 PM 28.3186 -81.8150 283° West 306 352 13,700 1,650 Climbing Jacksonville Center
Fri 03:14:51 PM 28.3467 -81.9186 287° West 321 369 14,700 1,000 Climbing Jacksonville Center
Fri 03:15:51 PM 28.3972 -82.0169 300° West 338 389 15,700 1,150 Climbing Jacksonville Center
Fri 03:16:51 PM 28.4522 -82.1158 302° West 361 415 17,000 1,300 Climbing Jacksonville Center
Fri 03:17:51 PM 28.5069 -82.2122 303° West 372 428 18,300 1,100 Climbing Jacksonville Center
Fri 03:18:51 PM 28.5639 -82.3089 304° West 372 428 19,200 950 Climbing Jacksonville Center
Fri 03:19:51 PM 28.6228 -82.4078 304° West 372 428 20,200 1,100 Climbing Jacksonville Center
Fri 03:20:51 PM 28.7022 -82.4997 315° West 372 428 21,400 1,100 Climbing Jacksonville Center
Fri 03:21:51 PM 28.7839 -82.5775 320° Northwest 372 428 22,400 1,000 Climbing Jacksonville Center
Fri 03:22:51 PM 28.8633 -82.6578 319° Northwest 377 434 23,400 1,000 Climbing Jacksonville Center
Fri 03:23:51 PM 28.9428 -82.7383 318° Northwest 377 434 24,400 900 Climbing Jacksonville Center
Fri 03:24:51 PM 29.0161 -82.8094 320° Northwest 382 440 25,200 908 Climbing Jacksonville Center
Fri 03:25:50 PM 29.0975 -82.8903 319° Northwest 387 445 26,200 1,000 Climbing Jacksonville Center
Fri 03:26:51 PM 29.1789 -82.9733 318° Northwest 387 445 27,200 992 Climbing Jacksonville Center
Fri 03:27:51 PM 29.2622 -83.0567 319° Northwest 387 445 28,200 1,000 Climbing Jacksonville Center
Fri 03:28:51 PM 29.3414 -83.1381 318° Northwest 387 445 29,200 1,050 Climbing Jacksonville Center
Fri 03:29:51 PM 29.4247 -83.2192 320° Northwest 387 445 30,300 1,050 Climbing Jacksonville Center
Fri 03:30:51 PM 29.5039 -83.3031 317° Northwest 387 445 31,300 1,000 Climbing Jacksonville Center
Fri 03:31:51 PM 29.5869 -83.3869 319° Northwest 387 445 32,300 1,000 Climbing Jacksonville Center
Fri 03:32:51 PM 29.6681 -83.4686 319° Northwest 387 445 33,300 850 Climbing Jacksonville Center
Fri 03:33:51 PM 29.7492 -83.5481 320° Northwest 387 445 34,000 350 Climbing Jacksonville Center
Fri 03:34:51 PM 29.8133 -83.6514 306° West 387 445 34,000  Level Jacksonville Center
Fri 03:35:51 PM 29.8564 -83.7692 293° West 387 445 34,000  Level Jacksonville Center
Fri 03:36:51 PM 29.8953 -83.8869 291° West 392 451 34,000  Level Jacksonville Center
Fri 03:37:51 PM 29.9361 -84.0022 292° West 397 457 34,000  Level Jacksonville Center
Fri 03:38:51 PM 29.9767 -84.1228 291° West 390 449 34,000  Level Jacksonville Center
Fri 03:39:51 PM 30.0172 -84.2358 293° West 390 449 34,000  Level Jacksonville Center
Fri 03:40:51 PM 30.0578 -84.3542 292° West 390 449 34,000  Level Jacksonville Center
Fri 03:41:51 PM 30.0981 -84.4747 291° West 390 449 34,000  Level Jacksonville Center
Fri 03:42:51 PM 30.1383 -84.5883 292° West 390 449 34,000  Level Jacksonville Center
Fri 03:43:51 PM 30.1764 -84.7067 290° West 390 449 34,000  Level Jacksonville Center
Fri 03:44:51 PM 30.2164 -84.8228 292° West 390 449 34,000  Level Jacksonville Center
Fri 03:45:51 PM 30.2564 -84.9392 292° West 390 449 34,000  Level Jacksonville Center
Fri 03:46:51 PM 30.2942 -85.0553 291° West 390 449 34,000  Level Jacksonville Center
Fri 03:47:51 PM 30.3339 -85.1692 292° West 390 449 34,000  Level Jacksonville Center
Fri 03:48:51 PM 30.3733 -85.2883 291° West 390 449 34,000  Level Jacksonville Center
Fri 03:49:51 PM 30.4131 -85.4025 292° West 390 449 34,000  Level Jacksonville Center
Fri 03:50:51 PM 30.4481 -85.5214 289° West 390 449 34,000  Level Jacksonville Center
Fri 03:51:51 PM 30.4728 -85.6378 284° West 384 442 34,000  Level Jacksonville Center
Fri 03:52:51 PM 30.4953 -85.7589 282° West 379 436 34,000  Level Jacksonville Center
Fri 03:53:51 PM 30.5175 -85.8778 282° West 379 436 34,000  Level Jacksonville Center
Fri 03:54:51 PM 30.5419 -85.9942 284° West 374 430 34,000  Level Jacksonville Center
Fri 03:55:51 PM 30.5642 -86.1108 283° West 374 430 34,000  Level Jacksonville Center
Fri 03:56:51 PM 30.5881 -86.2297 283° West 374 430 34,000  Level Jacksonville Center
Fri 03:57:51 PM 30.6122 -86.3489 283° West 374 430 34,000  Level Jacksonville Center
Fri 03:58:51 PM 30.6339 -86.4703 282° West 379 436 34,000  Level Jacksonville Center
Fri 03:59:51 PM 30.6575 -86.5872 283° West 374 430 34,000  Level Jacksonville Center
Fri 04:00:51 PM 30.6792 -86.7064 282° West 374 430 34,000  Level Jacksonville Center
Fri 04:01:51 PM 30.7006 -86.8256 282° West 374 430 34,000  Level Jacksonville Center
Fri 04:02:51 PM 30.7261 -86.9425 284° West 374 430 34,000  Level Jacksonville Center
Fri 04:03:51 PM 30.7475 -87.0594 282° West 374 430 34,000  Level Jacksonville Center
Fri 04:05:32 PM 30.7872 -87.2650 283° West 372 428 34,000  Level Houston Center
Fri 04:06:34 PM 30.8083 -87.3844 282° West 376 433 34,000  Level Houston Center
Fri 04:07:36 PM 30.8311 -87.5031 283° West 376 433 34,000  Level Houston Center
Fri 04:08:38 PM 30.8522 -87.6222 282° West 376 433 34,000  Level Houston Center
Fri 04:09:40 PM 30.8769 -87.7617 282° West 376 433 34,000  Level Houston Center
Fri 04:10:42 PM 30.8983 -87.8803 282° West 376 433 34,000  Level Houston Center
Fri 04:11:45 PM 30.9189 -87.9981 282° West 374 430 34,000  Level Houston Center
Fri 04:12:47 PM 30.9386 -88.1144 281° West 371 427 34,000  Level Houston Center
Fri 04:13:49 PM 30.9569 -88.2322 280° West 371 427 34,000  Level Houston Center
Fri 04:14:51 PM 30.9828 -88.3517 284° West 397 457 34,000  Level Houston Center
Fri 04:15:53 PM 31.0069 -88.4928 281° West 374 430 34,000  Level Houston Center
Fri 04:16:56 PM 31.0275 -88.6100 282° West 371 427 34,000  Level Houston Center
Fri 04:17:57 PM 31.0461 -88.7183 281° West 370 426 34,000  Level Houston Center
Fri 04:18:59 PM 31.0694 -88.8578 281° West 369 425 34,000  Level Houston Center
Fri 04:20:02 PM 31.0883 -88.9594 282° West 370 426 34,000  Level Houston Center
Fri 04:21:04 PM 31.1122 -89.0994 281° West 370 426 34,000  Level Houston Center
Fri 04:22:06 PM 31.1322 -89.2156 281° West 370 426 34,000  Level Houston Center
Fri 04:23:08 PM 31.1525 -89.3322 282° West 369 425 34,000  Level Houston Center
Fri 04:24:10 PM 31.1717 -89.4486 281° West 368 423 34,000  Level Houston Center
Fri 04:25:12 PM 31.1911 -89.5644 281° West 367 422 34,000  Level Houston Center
Fri 04:26:14 PM 31.2147 -89.7047 281° West 368 423 34,000  Level Houston Center
Fri 04:27:17 PM 31.2333 -89.8208 281° West 367 422 34,000  Level Houston Center
Fri 04:28:19 PM 31.2517 -89.9358 281° West 364 419 34,000  Level Houston Center
Fri 04:29:21 PM 31.2706 -90.0483 281° West 357 411 34,000  Level Houston Center
Fri 04:30:23 PM 31.2903 -90.1644 281° West 364 419 34,000  Level Houston Center
Fri 04:31:25 PM 31.3172 -90.3042 283° West 370 426 34,000  Level Houston Center
Fri 04:32:27 PM 31.3506 -90.4189 289° West 374 430 34,000 -484 Level Houston Center
Fri 04:33:29 PM 31.3839 -90.5342 289° West 375 432 33,000 -968 Descending Houston Center
Fri 04:34:31 PM 31.4167 -90.6489 289° West 373 429 32,000 -480 Descending Houston Center
Fri 04:35:34 PM 31.4478 -90.7644 288° West 374 430 32,000  Level Houston Center
Fri 04:36:36 PM 31.4814 -90.8781 289° West 372 428 32,000  Level Houston Center
Fri 04:37:38 PM 31.5197 -91.0150 288° West 370 426 32,000  Level Houston Center
Fri 04:38:40 PM 31.5475 -91.1136 288° West 367 422 32,000  Level Houston Center
Fri 04:39:42 PM 31.5858 -91.2503 288° West 368 423 32,000  Level Houston Center
Fri 04:40:44 PM 31.6172 -91.3636 288° West 367 422 32,000  Level Houston Center
Fri 04:41:46 PM 31.6489 -91.4775 288° West 368 423 32,000  Level Houston Center
Fri 04:42:48 PM 31.6800 -91.5911 288° West 367 422 32,000  Level Houston Center
Fri 04:43:50 PM 31.7117 -91.7061 288° West 370 426 32,000  Level Houston Center
Fri 04:44:53 PM 31.7489 -91.8422 288° West 368 423 32,000  Level Houston Center
Fri 04:45:55 PM 31.7803 -91.9553 288° West 366 421 32,000  Level Houston Center
Fri 04:46:57 PM 31.8100 -92.0675 287° West 368 423 32,000  Level Houston Center
Fri 04:47:59 PM 31.8406 -92.1803 288° West 365 420 32,000  Level Houston Center
Fri 04:49:01 PM 31.8711 -92.2939 288° West 366 421 32,000  Level Houston Center
Fri 04:50:03 PM 31.9083 -92.4300 288° West 365 420 32,000  Level Houston Center
Fri 04:51:05 PM 31.9375 -92.5411 287° West 363 418 32,000  Level Houston Center
Fri 04:52:07 PM 31.9658 -92.6528 287° West 360 414 32,000  Level Houston Center
Fri 04:53:10 PM 31.9867 -92.7681 282° West 361 415 32,000  Level Houston Center
Fri 04:54:12 PM 32.0039 -92.8842 280° West 362 417 32,000  Level Houston Center
Fri 04:55:14 PM 32.0261 -93.0272 280° West 364 419 32,000  Level Houston Center
Fri 04:56:16 PM 32.0422 -93.1422 279° West 361 415 32,000  Level Houston Center
Fri 04:57:18 PM 32.0594 -93.2567 280° West 358 412 32,000  Level Houston Center
Fri 04:58:21 PM 32.0761 -93.3714 280° West 357 411 32,000  Level Houston Center
Fri 04:59:22 PM 32.0931 -93.4856 280° West 355 409 32,000  Level Houston Center
Fri 05:00:24 PM 32.1128 -93.6222 280° West 353 406 32,000  Level Houston Center
Fri 05:01:10 PM 32.1253 -93.6994 281° West 366 421 32,000  Level Fort Worth Center
Fri 05:02:10 PM 32.1411 -93.8094 280° West 360 414 32,000 -100 Level Fort Worth Center
Fri 05:03:10 PM 32.1567 -93.9239 279° West 355 409 31,800 -950 Descending Fort Worth Center
Fri 05:04:10 PM 32.1725 -94.0411 279° West 355 409 30,100 -1,850 Descending Fort Worth Center
Fri 05:05:10 PM 32.1878 -94.1536 279° West 355 409 28,100 -2,300 Descending Fort Worth Center
Fri 05:06:10 PM 32.2014 -94.2708 278° West 355 409 25,500 -2,550 Descending Fort Worth Center
Fri 05:07:10 PM 32.2189 -94.3881 280° West 360 414 23,000 -2,850 Descending Fort Worth Center
Fri 05:08:10 PM 32.2319 -94.5031 278° West 360 414 19,800 -3,250 Descending Fort Worth Center
Fri 05:09:10 PM 32.2511 -94.6106 282° West 360 414 16,500 -3,200 Descending Fort Worth Center
Fri 05:10:10 PM 32.2594 -94.7061 276° West 330 380 13,400 -2,850 Descending Fort Worth Center
Fri 05:11:10 PM 32.2742 -94.8039 280° West 312 359 10,800 -2,350 Descending Fort Worth Center
Fri 05:12:10 PM 32.2819 -94.8872 276° West 284 327 8,700 -2,350 Descending Fort Worth Center
Fri 05:13:10 PM 32.2983 -94.9803 282° West 279 321 6,100 -2,750 Descending Fort Worth Center
Fri 05:14:10 PM 32.3106 -95.0733 279° West 284 327 3,200 -1,550 Descending Fort Worth Center
Fri 05:15:10 PM 32.3142 -95.1592 273° West 272 313 3,000 -100 Descending Fort Worth Center
Fri 05:16:10 PM 32.3242 -95.2450 278° West 272 313 3,000 4,000 Level Fort Worth Center
Fri 05:17:10 PM 32.3319 -95.3408 276° West 272 313 11,000 4,000 Climbing Fort Worth Center
Fri 05:18:10 PM 32.3375 -95.4267 274° West 272 313 11,000  Level Fort Worth Center
Fri 05:19:10 PM 32.3453 -95.5125 276° West 272 313 11,000  Level Fort Worth Center
Fri 05:20:10 PM 32.3506 -95.5986 274° West 272 313 11,000  Level Fort Worth Center

Login

Don't have an account? Register now (free) for customized features, flight alerts, and more!